Ana Sayfa
METAR-TAF:

METAR-TAF

Havaalanları :

Cidde, Suudi Arabistan

Enlem: 21-42N, Boylam: 039-11E, yükseklik: 15 m

Güncel hava durumu gözlemi

Rapor saat 02:00 UTC de 25 dakika önce yapıldı.
Sakin rüzgar
Sıcaklık 31°C
Nem 71%
Basınç 1007 hPa
Görüş mesafesi: 6000 m
Açık gökyüzü

METAR: OEJN 260200Z 00000KT 6000 SKC 31/25 Q1007 NOSIG

Saat: 05:25 (02:25 UTC)

Tahmin

Rapor saat 23:00 UTC de 3 saat ve 25 dakika önce yapıldı.
Ayın 26'si saat 00 UTC'den ayın 27'si saat 06 UTC'ye kadar geçerli Tahmin
Rüzgar değişken yönden 3 kt
Görüş mesafesi: 7000 m
4000 ft yükseklikte az bulutlu
Geçici
ayın 26'si saat 00 UTC'den ayın 26'si saat 04 UTC'ye kadar
Görüş mesafesi: 3500 m
Pus
Dönüşüyor
ayın 26'si saat 06 UTC'den ayın 26'si saat 08 UTC'ye kadar
Rüzgar batı/güneybatıdan 15 kt

TAF: OEJN 252300Z 2600/2706 VRB03KT 7000 FEW040 TEMPO 2600/2604 3500 BR BECMG 2606/2608 24015KT

4.000'den fazla havaalanı için hava durumu gözlemleri ve tahminleri (METAR ve TAF raporları).

Kullanılabilir istasyonlar harita üzerinde sarı ve kırmızı noktalarla gösterilir.

İstasyonun adını görmek için fareyi noktanın üzerinde gezdirin.

Sonrasında hava gözlem ve tahminlerini görmek için tıklayın.

Haritayı değiştirmek için: yaklaştırmak için siyah artı işaretli yeşil düğmeye ve uzaklaştırmak için de eksi işaretli düğmeye hızla tıklayın; bitişik haritalar için yeşil okları kullanın.


METAR-TAF: